createdAt,value
2023-03-07T00:00:40.217Z,96.12
2023-03-07T00:01:40.136Z,96.59
2023-03-07T00:02:40.137Z,96.69
2023-03-07T00:03:39.985Z,96.69
2023-03-07T00:04:39.876Z,96.69
2023-03-07T00:05:39.797Z,96.50
2023-03-07T00:06:39.706Z,96.97
2023-03-07T00:07:39.633Z,97.25
2023-03-07T00:08:39.547Z,97.06
2023-03-07T00:09:39.449Z,96.59
2023-03-07T00:10:39.370Z,96.78
2023-03-07T00:11:39.285Z,96.50
2023-03-07T00:12:39.190Z,96.31
2023-03-07T00:13:39.110Z,96.78
2023-03-07T00:14:39.023Z,96.50
2023-03-07T00:15:38.965Z,96.69
2023-03-07T00:16:38.858Z,96.31
2023-03-07T00:17:38.773Z,96.21
2023-03-07T00:18:38.687Z,96.40
2023-03-07T00:19:38.601Z,96.40
2023-03-07T00:20:38.522Z,96.31
2023-03-07T00:21:38.454Z,95.74
2023-03-07T00:22:38.342Z,96.02
2023-03-07T00:23:38.264Z,95.45
2023-03-07T00:24:38.174Z,95.74
2023-03-07T00:25:38.095Z,95.93
2023-03-07T00:26:38.007Z,95.83
2023-03-07T00:27:37.922Z,95.83
2023-03-07T00:28:37.829Z,95.64
2023-03-07T00:29:37.745Z,95.93
2023-03-07T00:30:37.662Z,95.74
2023-03-07T00:31:37.640Z,95.93
2023-03-07T00:32:37.531Z,96.40
2023-03-07T00:33:37.403Z,96.40
2023-03-07T00:34:37.324Z,96.50
2023-03-07T00:35:37.234Z,96.50
2023-03-07T00:36:37.146Z,96.50
2023-03-07T00:37:37.061Z,96.40
2023-03-07T00:38:36.978Z,96.40
2023-03-07T00:39:36.891Z,96.59
2023-03-07T00:40:36.812Z,96.21
2023-03-07T00:41:36.729Z,96.31
2023-03-07T00:42:36.655Z,96.78
2023-03-07T00:43:36.558Z,96.40
2023-03-07T00:44:36.480Z,96.40
2023-03-07T00:45:36.399Z,96.21
2023-03-07T00:46:36.293Z,96.31
2023-03-07T00:47:36.211Z,96.40
2023-03-07T00:48:36.138Z,96.31
2023-03-07T00:49:36.040Z,96.21
2023-03-07T00:50:35.957Z,96.21
2023-03-07T00:51:35.871Z,96.50
2023-03-07T00:52:35.786Z,95.74
2023-03-07T00:53:35.699Z,95.83
2023-03-07T00:54:35.610Z,95.83
2023-03-07T00:55:35.530Z,95.83
2023-03-07T00:56:35.437Z,95.64
2023-03-07T00:57:35.358Z,95.64
2023-03-07T00:58:35.273Z,96.31
2023-03-07T00:59:35.190Z,96.40
2023-03-07T01:00:35.126Z,96.21
2023-03-07T01:01:35.013Z,96.50
2023-03-07T01:02:34.933Z,95.64
2023-03-07T01:03:34.842Z,95.74
2023-03-07T01:04:34.828Z,95.83
2023-03-07T01:05:34.680Z,95.74
2023-03-07T01:06:34.587Z,95.64
2023-03-07T01:07:34.502Z,95.74
2023-03-07T01:08:34.420Z,95.74
2023-03-07T01:09:34.329Z,95.83
2023-03-07T01:10:34.244Z,96.02
2023-03-07T01:11:34.165Z,96.12
2023-03-07T01:12:34.074Z,95.83
2023-03-07T01:13:33.990Z,95.64
2023-03-07T01:14:33.912Z,95.74
2023-03-07T01:15:33.827Z,96.21
2023-03-07T01:16:33.738Z,95.36
2023-03-07T01:17:33.647Z,95.36
2023-03-07T01:18:33.561Z,95.55
2023-03-07T01:19:33.477Z,95.83
2023-03-07T01:20:33.389Z,95.50
2023-03-07T01:21:33.307Z,95.17
2023-03-07T01:22:33.224Z,95.64
2023-03-07T01:23:33.135Z,95.55
2023-03-07T01:24:33.054Z,95.45
2023-03-07T01:25:32.963Z,95.55
2023-03-07T01:26:32.879Z,96.21
2023-03-07T01:27:32.796Z,95.55
2023-03-07T01:28:32.706Z,95.36
2023-03-07T01:29:32.623Z,95.12
2023-03-07T01:30:32.540Z,95.31
2023-03-07T01:31:32.635Z,94.70
2023-03-07T01:32:32.488Z,95.36
2023-03-07T01:33:32.279Z,94.79
2023-03-07T01:34:32.194Z,95.74
2023-03-07T01:35:32.134Z,95.64
2023-03-07T01:36:32.040Z,95.55
2023-03-07T01:37:31.938Z,95.07
2023-03-07T01:38:31.851Z,95.03
2023-03-07T01:39:31.785Z,95.07
2023-03-07T01:40:31.680Z,94.98
2023-03-07T01:41:31.595Z,95.07
2023-03-07T01:42:31.508Z,94.98
2023-03-07T01:43:31.424Z,95.36
2023-03-07T01:44:31.346Z,95.45
2023-03-07T01:45:31.307Z,95.26
2023-03-07T01:46:31.183Z,95.26
2023-03-07T01:47:31.088Z,95.26
2023-03-07T01:48:31.000Z,95.17
2023-03-07T01:49:30.981Z,95.17
2023-03-07T01:50:30.825Z,95.17
2023-03-07T01:51:30.739Z,95.26
2023-03-07T01:52:30.653Z,95.45
2023-03-07T01:53:30.575Z,95.36
2023-03-07T01:54:30.481Z,95.36
2023-03-07T01:55:30.398Z,94.79
2023-03-07T01:56:30.310Z,94.98
2023-03-07T01:57:30.227Z,94.98
2023-03-07T01:58:30.139Z,94.42
2023-03-07T01:59:30.056Z,94.23
2023-03-07T02:00:30.035Z,94.32
2023-03-07T02:01:29.982Z,93.75
2023-03-07T02:02:29.833Z,93.65
2023-03-07T02:03:29.716Z,94.13
2023-03-07T02:04:29.665Z,94.13
2023-03-07T02:05:29.546Z,94.23
2023-03-07T02:06:29.454Z,94.79
2023-03-07T02:07:29.373Z,94.42
2023-03-07T02:08:29.284Z,94.60
2023-03-07T02:09:29.196Z,94.42
2023-03-07T02:10:29.111Z,94.51
2023-03-07T02:11:29.052Z,94.42
2023-03-07T02:12:28.943Z,94.42
2023-03-07T02:13:28.855Z,93.94
2023-03-07T02:14:28.778Z,94.42
2023-03-07T02:15:28.684Z,93.89
2023-03-07T02:16:28.597Z,93.94
2023-03-07T02:17:28.514Z,93.94
2023-03-07T02:18:28.435Z,94.13
2023-03-07T02:19:28.352Z,93.75
2023-03-07T02:20:28.274Z,93.94
2023-03-07T02:21:28.172Z,94.42
2023-03-07T02:22:28.087Z,93.94
2023-03-07T02:23:28.004Z,94.23
2023-03-07T02:24:27.915Z,94.23
2023-03-07T02:25:27.827Z,94.42
2023-03-07T02:26:27.743Z,94.42
2023-03-07T02:27:27.658Z,93.56
2023-03-07T02:28:27.577Z,93.56
2023-03-07T02:29:27.479Z,93.27
2023-03-07T02:30:27.405Z,93.27
2023-03-07T02:31:27.343Z,93.65
2023-03-07T02:32:27.288Z,93.65
2023-03-07T02:33:27.145Z,93.56
2023-03-07T02:34:27.071Z,93.56
2023-03-07T02:35:27.000Z,93.75
2023-03-07T02:36:26.893Z,93.18
2023-03-07T02:37:26.802Z,93.56
2023-03-07T02:38:26.718Z,93.46
2023-03-07T02:39:26.631Z,93.27
2023-03-07T02:40:26.552Z,93.46
2023-03-07T02:41:26.459Z,93.27
2023-03-07T02:42:26.376Z,92.52
2023-03-07T02:43:26.292Z,92.52
2023-03-07T02:44:26.213Z,92.61
2023-03-07T02:45:26.117Z,92.61
2023-03-07T02:46:26.056Z,92.90
2023-03-07T02:47:25.947Z,92.99
2023-03-07T02:48:25.861Z,92.52
2023-03-07T02:49:25.773Z,92.52
2023-03-07T02:50:25.699Z,92.52
2023-03-07T02:51:25.607Z,92.43
2023-03-07T02:52:25.519Z,92.90
2023-03-07T02:53:25.429Z,92.71
2023-03-07T02:54:25.359Z,92.52
2023-03-07T02:55:25.268Z,92.24
2023-03-07T02:56:25.172Z,92.14
2023-03-07T02:57:25.092Z,92.24
2023-03-07T02:58:25.003Z,92.24
2023-03-07T02:59:24.915Z,92.24
2023-03-07T03:00:24.831Z,91.86
2023-03-07T03:01:24.786Z,91.76
2023-03-07T03:02:24.661Z,91.76
2023-03-07T03:03:24.576Z,92.05
2023-03-07T03:04:24.572Z,91.95
2023-03-07T03:05:24.417Z,91.86
2023-03-07T03:06:24.343Z,92.52
2023-03-07T03:07:24.238Z,92.33
2023-03-07T03:08:24.157Z,92.52
2023-03-07T03:09:24.063Z,92.71
2023-03-07T03:10:23.979Z,92.90
2023-03-07T03:11:23.902Z,93.37
2023-03-07T03:12:23.814Z,93.65
2023-03-07T03:13:23.728Z,93.18
2023-03-07T03:14:23.675Z,93.65
2023-03-07T03:15:23.554Z,93.18
2023-03-07T03:16:23.574Z,93.65
2023-03-07T03:17:23.379Z,93.65
2023-03-07T03:18:23.307Z,93.46
2023-03-07T03:19:23.217Z,93.94
2023-03-07T03:20:23.126Z,93.56
2023-03-07T03:21:23.052Z,94.04
2023-03-07T03:22:22.983Z,94.23
2023-03-07T03:23:22.866Z,94.13
2023-03-07T03:24:22.781Z,93.94
2023-03-07T03:25:22.698Z,94.23
2023-03-07T03:26:22.612Z,93.84
2023-03-07T03:27:22.531Z,94.13
2023-03-07T03:28:22.443Z,94.32
2023-03-07T03:29:22.355Z,94.13
2023-03-07T03:30:22.272Z,94.23
2023-03-07T03:31:22.226Z,94.04
2023-03-07T03:32:22.150Z,93.94
2023-03-07T03:33:22.017Z,93.94
2023-03-07T03:34:21.932Z,94.23
2023-03-07T03:35:21.839Z,93.94
2023-03-07T03:36:21.754Z,94.42
2023-03-07T03:37:21.666Z,94.89
2023-03-07T03:38:21.590Z,94.42
2023-03-07T03:39:21.508Z,94.42
2023-03-07T03:40:21.415Z,94.42
2023-03-07T03:41:21.327Z,94.42
2023-03-07T03:42:21.248Z,94.42
2023-03-07T03:43:21.154Z,94.51
2023-03-07T03:44:21.077Z,94.89
2023-03-07T03:45:20.986Z,94.89
2023-03-07T03:46:20.923Z,94.42
2023-03-07T03:47:20.812Z,94.51
2023-03-07T03:48:20.723Z,94.79
2023-03-07T03:49:20.640Z,94.13
2023-03-07T03:50:20.551Z,93.94
2023-03-07T03:51:20.474Z,94.89
2023-03-07T03:52:20.388Z,94.70
2023-03-07T03:53:20.300Z,94.79
2023-03-07T03:54:20.226Z,95.07
2023-03-07T03:55:20.128Z,95.07
2023-03-07T03:56:20.039Z,95.78
2023-03-07T03:57:19.952Z,95.45
2023-03-07T03:58:19.871Z,95.31
2023-03-07T03:59:19.782Z,95.07
2023-03-07T04:00:21.103Z,95.36
2023-03-07T04:01:19.614Z,95.26
2023-03-07T04:02:19.607Z,95.17
2023-03-07T04:03:19.444Z,95.17
2023-03-07T04:04:19.352Z,95.21
2023-03-07T04:05:19.281Z,95.17
2023-03-07T04:06:19.183Z,95.07
2023-03-07T04:07:19.097Z,95.07
2023-03-07T04:08:19.013Z,95.36
2023-03-07T04:09:18.924Z,94.89
2023-03-07T04:10:18.846Z,94.60
2023-03-07T04:11:18.752Z,94.13
2023-03-07T04:12:18.665Z,94.23
2023-03-07T04:13:18.582Z,94.42
2023-03-07T04:14:18.502Z,94.32
2023-03-07T04:15:18.416Z,94.13
2023-03-07T04:16:18.396Z,94.32
2023-03-07T04:17:18.240Z,94.23
2023-03-07T04:18:18.149Z,94.23
2023-03-07T04:19:18.086Z,94.23
2023-03-07T04:20:17.983Z,94.32
2023-03-07T04:21:17.897Z,94.23
2023-03-07T04:22:17.808Z,93.94
2023-03-07T04:23:17.738Z,93.94
2023-03-07T04:24:17.650Z,94.32
2023-03-07T04:25:17.551Z,94.42
2023-03-07T04:26:17.524Z,94.13
2023-03-07T04:27:17.380Z,94.51
2023-03-07T04:28:17.292Z,93.75
2023-03-07T04:29:17.209Z,93.46
2023-03-07T04:30:17.125Z,93.37
2023-03-07T04:31:17.102Z,93.18
2023-03-07T04:32:16.958Z,92.90
2023-03-07T04:33:16.870Z,93.08
2023-03-07T04:34:16.789Z,93.37
2023-03-07T04:35:16.704Z,93.94
2023-03-07T04:36:16.608Z,93.80
2023-03-07T04:37:16.523Z,93.56
2023-03-07T04:38:16.447Z,93.56
2023-03-07T04:39:16.362Z,93.84
2023-03-07T04:40:16.267Z,93.37
2023-03-07T04:41:16.194Z,93.42
2023-03-07T04:42:16.098Z,93.46
2023-03-07T04:43:16.024Z,93.08
2023-03-07T04:44:15.936Z,93.08
2023-03-07T04:45:15.848Z,93.37
2023-03-07T04:46:15.792Z,93.37
2023-03-07T04:47:15.667Z,93.56
2023-03-07T04:48:15.580Z,92.85
2023-03-07T04:49:15.500Z,93.08
2023-03-07T04:50:15.414Z,93.37
2023-03-07T04:51:15.337Z,92.90
2023-03-07T04:52:15.249Z,93.32
2023-03-07T04:53:15.153Z,93.46
2023-03-07T04:54:15.072Z,93.37
2023-03-07T04:55:14.993Z,93.84
2023-03-07T04:56:14.897Z,93.18
2023-03-07T04:57:14.812Z,92.80
2023-03-07T04:58:14.729Z,93.08
2023-03-07T04:59:14.647Z,92.33
2023-03-07T05:00:14.557Z,93.18
2023-03-07T05:01:14.534Z,93.18
2023-03-07T05:02:14.388Z,93.18
2023-03-07T05:03:14.301Z,92.99
2023-03-07T05:04:14.245Z,92.99
2023-03-07T05:05:14.126Z,93.84
2023-03-07T05:06:14.037Z,93.56
2023-03-07T05:07:13.954Z,93.56
2023-03-07T05:08:13.870Z,93.46
2023-03-07T05:09:13.786Z,93.51
2023-03-07T05:10:13.738Z,93.56
2023-03-07T05:11:13.617Z,93.18
2023-03-07T05:12:13.533Z,93.08
2023-03-07T05:13:13.444Z,93.56
2023-03-07T05:14:13.357Z,93.18
2023-03-07T05:15:13.273Z,93.56
2023-03-07T05:16:13.222Z,93.46
2023-03-07T05:17:13.099Z,93.65
2023-03-07T05:18:13.010Z,93.46
2023-03-07T05:19:12.929Z,93.27
2023-03-07T05:20:12.838Z,93.84
2023-03-07T05:21:12.756Z,94.13
2023-03-07T05:22:12.666Z,94.04
2023-03-07T05:23:12.587Z,94.04
2023-03-07T05:24:12.508Z,94.04
2023-03-07T05:25:12.417Z,94.04
2023-03-07T05:26:12.325Z,94.32
2023-03-07T05:27:12.239Z,93.75
2023-03-07T05:28:12.158Z,94.04
2023-03-07T05:29:12.067Z,93.56
2023-03-07T05:30:11.985Z,93.65
2023-03-07T05:31:11.926Z,93.65
2023-03-07T05:32:11.861Z,93.84
2023-03-07T05:33:11.735Z,93.65
2023-03-07T05:34:11.638Z,94.13
2023-03-07T05:35:11.552Z,93.94
2023-03-07T05:36:11.465Z,94.32
2023-03-07T05:37:11.381Z,94.70
2023-03-07T05:38:11.295Z,94.60
2023-03-07T05:39:11.222Z,94.74
2023-03-07T05:40:11.173Z,94.65
2023-03-07T05:41:11.043Z,94.46
2023-03-07T05:42:10.956Z,95.21
2023-03-07T05:43:10.869Z,95.50
2023-03-07T05:44:10.785Z,95.45
2023-03-07T05:45:10.693Z,94.56
2023-03-07T05:46:10.634Z,95.36
2023-03-07T05:47:10.525Z,95.12
2023-03-07T05:48:10.438Z,95.07
2023-03-07T05:49:10.356Z,94.84
2023-03-07T05:50:10.273Z,95.12
2023-03-07T05:51:10.184Z,95.12
2023-03-07T05:52:10.095Z,95.03
2023-03-07T05:53:10.011Z,95.03
2023-03-07T05:54:09.925Z,95.50
2023-03-07T05:55:09.847Z,95.69
2023-03-07T05:56:09.754Z,94.84
2023-03-07T05:57:09.672Z,95.31
2023-03-07T05:58:09.584Z,95.69
2023-03-07T05:59:09.498Z,95.74
2023-03-07T06:00:09.407Z,95.50
2023-03-07T06:01:09.325Z,95.31
2023-03-07T06:02:09.250Z,95.55
2023-03-07T06:03:09.154Z,95.59
2023-03-07T06:04:09.138Z,95.74
2023-03-07T06:05:08.982Z,94.89
2023-03-07T06:06:08.894Z,95.40
2023-03-07T06:07:08.813Z,94.70
2023-03-07T06:08:08.726Z,95.26
2023-03-07T06:09:08.646Z,94.70
2023-03-07T06:10:08.557Z,95.55
2023-03-07T06:11:08.470Z,95.17
2023-03-07T06:12:08.379Z,95.26
2023-03-07T06:13:08.292Z,94.98
2023-03-07T06:14:08.209Z,95.36
2023-03-07T06:15:08.122Z,95.83
2023-03-07T06:16:08.113Z,95.74
2023-03-07T06:17:07.952Z,95.45
2023-03-07T06:18:07.872Z,95.45
2023-03-07T06:19:07.785Z,95.45
2023-03-07T06:20:07.699Z,94.89
2023-03-07T06:21:07.612Z,94.98
2023-03-07T06:22:07.524Z,95.64
2023-03-07T06:23:07.444Z,95.83
2023-03-07T06:24:07.376Z,95.64
2023-03-07T06:25:07.273Z,95.45
2023-03-07T06:26:07.197Z,95.45
2023-03-07T06:27:07.094Z,95.74
2023-03-07T06:28:07.014Z,95.55
2023-03-07T06:29:06.922Z,95.64
2023-03-07T06:30:06.839Z,95.83
2023-03-07T06:31:06.787Z,95.55
2023-03-07T06:32:06.748Z,95.55
2023-03-07T06:33:06.581Z,95.64
2023-03-07T06:34:06.503Z,95.45
2023-03-07T06:35:06.433Z,95.93
2023-03-07T06:36:06.333Z,95.83
2023-03-07T06:37:06.238Z,95.83
2023-03-07T06:38:06.158Z,96.12
2023-03-07T06:39:06.067Z,95.55
2023-03-07T06:40:05.988Z,96.21
2023-03-07T06:41:05.898Z,96.50
2023-03-07T06:42:05.811Z,96.12
2023-03-07T06:43:05.726Z,96.21
2023-03-07T06:44:05.644Z,95.64
2023-03-07T06:45:05.564Z,95.83
2023-03-07T06:46:05.496Z,96.02
2023-03-07T06:47:05.380Z,95.26
2023-03-07T06:48:05.298Z,96.02
2023-03-07T06:49:05.211Z,96.21
2023-03-07T06:50:05.128Z,95.64
2023-03-07T06:51:05.039Z,95.83
2023-03-07T06:52:04.958Z,95.83
2023-03-07T06:53:04.867Z,95.74
2023-03-07T06:54:04.786Z,95.55
2023-03-07T06:55:04.696Z,95.64
2023-03-07T06:56:04.621Z,95.74
2023-03-07T06:57:04.525Z,95.26
2023-03-07T06:58:04.441Z,95.26
2023-03-07T06:59:04.355Z,95.26
2023-03-07T07:00:04.269Z,95.45
2023-03-07T07:01:04.186Z,95.64
2023-03-07T07:02:04.218Z,95.64
2023-03-07T07:03:04.145Z,95.55
2023-03-07T07:04:03.927Z,95.45
2023-03-07T07:05:03.842Z,95.55
2023-03-07T07:06:03.775Z,95.45
2023-03-07T07:07:03.669Z,95.07
2023-03-07T07:08:03.587Z,95.26
2023-03-07T07:09:03.498Z,95.17
2023-03-07T07:10:03.415Z,94.98
2023-03-07T07:11:03.333Z,95.07
2023-03-07T07:12:03.253Z,95.36
2023-03-07T07:13:03.160Z,95.22
2023-03-07T07:14:03.079Z,95.22
2023-03-07T07:15:02.999Z,95.07
2023-03-07T07:16:02.898Z,94.79
2023-03-07T07:17:02.815Z,94.93
2023-03-07T07:18:02.736Z,94.08
2023-03-07T07:19:02.643Z,93.70
2023-03-07T07:20:02.557Z,93.99
2023-03-07T07:21:02.483Z,94.46
2023-03-07T07:22:02.397Z,94.46
2023-03-07T07:23:02.303Z,94.56
2023-03-07T07:24:02.232Z,94.27
2023-03-07T07:25:02.139Z,94.27
2023-03-07T07:26:02.048Z,94.93
2023-03-07T07:27:01.957Z,94.08
2023-03-07T07:28:01.879Z,93.99
2023-03-07T07:29:01.789Z,93.70
2023-03-07T07:30:01.740Z,94.08
2023-03-07T07:31:01.622Z,94.08
2023-03-07T07:32:01.690Z,94.27
2023-03-07T07:33:01.564Z,93.80
2023-03-07T07:34:01.378Z,94.18
2023-03-07T07:35:01.279Z,94.18
2023-03-07T07:36:01.204Z,94.37
2023-03-07T07:37:01.111Z,94.27
2023-03-07T07:38:01.026Z,94.37
2023-03-07T07:39:00.939Z,93.99
2023-03-07T07:40:00.853Z,93.23
2023-03-07T07:41:00.764Z,93.61
2023-03-07T07:42:00.683Z,93.99
2023-03-07T07:43:00.601Z,93.51
2023-03-07T07:44:00.511Z,93.42
2023-03-07T07:45:00.434Z,93.51
2023-03-07T07:46:00.404Z,93.61
2023-03-07T07:47:00.269Z,93.23
2023-03-07T07:48:00.169Z,93.42
2023-03-07T07:49:00.090Z,93.80
2023-03-07T07:50:00.010Z,93.61
2023-03-07T07:50:59.914Z,93.42
2023-03-07T07:51:59.828Z,93.61
2023-03-07T07:52:59.740Z,93.13
2023-03-07T07:53:59.673Z,93.89
2023-03-07T07:54:59.577Z,93.70
2023-03-07T07:55:59.490Z,92.85
2023-03-07T07:56:59.405Z,93.51
2023-03-07T07:57:59.326Z,93.04
2023-03-07T07:58:59.233Z,92.94
2023-03-07T07:59:59.149Z,93.13
2023-03-07T08:00:59.062Z,93.23
2023-03-07T08:01:58.993Z,92.76
2023-03-07T08:02:58.893Z,92.57
2023-03-07T08:03:58.807Z,92.76
2023-03-07T08:04:58.717Z,92.94
2023-03-07T08:05:58.644Z,92.94
2023-03-07T08:06:58.553Z,92.85
2023-03-07T08:07:58.469Z,92.85
2023-03-07T08:08:58.379Z,92.38
2023-03-07T08:09:58.306Z,92.57
2023-03-07T08:10:58.211Z,92.76
2023-03-07T08:11:58.132Z,92.94
2023-03-07T08:12:58.039Z,92.80
2023-03-07T08:13:57.957Z,92.14
2023-03-07T08:14:57.870Z,91.85
2023-03-07T08:15:57.847Z,91.52
2023-03-07T08:16:57.699Z,91.38
2023-03-07T08:17:57.619Z,91.47
2023-03-07T08:18:57.530Z,91.85
2023-03-07T08:19:57.575Z,91.85
2023-03-07T08:20:57.358Z,91.19
2023-03-07T08:21:57.275Z,91.52
2023-03-07T08:22:57.192Z,91.28
2023-03-07T08:23:57.119Z,91.09
2023-03-07T08:24:57.028Z,90.91
2023-03-07T08:25:56.964Z,90.81
2023-03-07T08:26:56.863Z,91.00
2023-03-07T08:27:56.764Z,91.09
2023-03-07T08:28:56.681Z,90.81
2023-03-07T08:29:56.600Z,91.38
2023-03-07T08:30:56.543Z,91.85
2023-03-07T08:31:56.425Z,90.72
2023-03-07T08:32:56.357Z,90.62
2023-03-07T08:33:56.256Z,90.53
2023-03-07T08:34:56.169Z,90.15
2023-03-07T08:35:56.112Z,90.34
2023-03-07T08:36:55.999Z,90.05
2023-03-07T08:37:55.925Z,90.05
2023-03-07T08:38:55.831Z,89.96
2023-03-07T08:39:55.754Z,90.34
2023-03-07T08:40:55.664Z,90.34
2023-03-07T08:41:55.577Z,89.67
2023-03-07T08:42:55.533Z,89.48
2023-03-07T08:43:55.404Z,89.67
2023-03-07T08:44:55.315Z,90.34
2023-03-07T08:45:55.252Z,90.05
2023-03-07T08:46:55.145Z,89.58
2023-03-07T08:47:55.084Z,89.58
2023-03-07T08:48:54.980Z,90.05
2023-03-07T08:49:54.904Z,89.67
2023-03-07T08:50:55.325Z,89.01
2023-03-07T08:51:54.722Z,88.73
2023-03-07T08:52:54.637Z,89.01
2023-03-07T08:53:54.550Z,89.77
2023-03-07T08:54:54.464Z,90.05
2023-03-07T08:55:54.381Z,89.20
2023-03-07T08:56:54.304Z,89.58
2023-03-07T08:57:54.258Z,89.20
2023-03-07T08:58:54.137Z,89.39
2023-03-07T08:59:54.049Z,89.67
2023-03-07T09:00:53.955Z,88.44
2023-03-07T09:01:53.954Z,88.63
2023-03-07T09:02:53.783Z,88.73
2023-03-07T09:03:53.721Z,88.82
2023-03-07T09:04:53.687Z,89.20
2023-03-07T09:05:53.546Z,89.20
2023-03-07T09:06:53.538Z,88.63
2023-03-07T09:07:53.362Z,88.73
2023-03-07T09:08:53.274Z,88.82
2023-03-07T09:09:53.200Z,88.73
2023-03-07T09:10:53.111Z,88.92
2023-03-07T09:11:53.023Z,88.73
2023-03-07T09:12:52.934Z,88.82
2023-03-07T09:13:53.414Z,88.92
2023-03-07T09:14:52.789Z,88.87
2023-03-07T09:15:52.697Z,88.29
2023-03-07T09:16:52.601Z,87.63
2023-03-07T09:17:52.512Z,88.01
2023-03-07T09:18:52.429Z,87.82
2023-03-07T09:19:52.344Z,87.25
2023-03-07T09:20:52.257Z,87.06
2023-03-07T09:21:52.173Z,87.73
2023-03-07T09:22:52.088Z,88.16
2023-03-07T09:23:52.006Z,88.20
2023-03-07T09:24:51.929Z,88.29
2023-03-07T09:25:51.845Z,88.01
2023-03-07T09:26:51.754Z,87.73
2023-03-07T09:27:52.081Z,88.68
2023-03-07T09:28:51.585Z,88.01
2023-03-07T09:29:51.500Z,87.54
2023-03-07T09:30:51.429Z,88.01
2023-03-07T09:31:51.429Z,88.20
2023-03-07T09:32:51.244Z,87.92
2023-03-07T09:33:51.162Z,87.06
2023-03-07T09:34:51.077Z,86.68
2023-03-07T09:35:51.015Z,86.78
2023-03-07T09:36:50.905Z,87.06
2023-03-07T09:37:50.827Z,86.78
2023-03-07T09:38:50.738Z,87.06
2023-03-07T09:39:50.652Z,85.83
2023-03-07T09:40:50.568Z,86.40
2023-03-07T09:41:50.506Z,86.49
2023-03-07T09:42:50.400Z,86.49
2023-03-07T09:43:50.315Z,85.45
2023-03-07T09:44:50.270Z,85.74
2023-03-07T09:45:50.204Z,85.45
2023-03-07T09:46:50.070Z,85.11
2023-03-07T09:47:49.982Z,85.02
2023-03-07T09:48:49.894Z,85.40
2023-03-07T09:49:49.828Z,85.21
2023-03-07T09:50:49.733Z,85.49
2023-03-07T09:51:49.649Z,85.02
2023-03-07T09:52:49.563Z,84.45
2023-03-07T09:53:49.476Z,84.17
2023-03-07T09:54:49.394Z,84.45
2023-03-07T09:55:49.309Z,84.36
2023-03-07T09:56:49.221Z,84.49
2023-03-07T09:57:49.139Z,83.83
2023-03-07T09:58:49.056Z,83.73
2023-03-07T09:59:48.979Z,84.21
2023-03-07T10:00:48.886Z,84.40
2023-03-07T10:01:48.813Z,82.88
2023-03-07T10:02:48.723Z,82.03
2023-03-07T10:03:48.762Z,82.97
2023-03-07T10:04:48.559Z,82.12
2023-03-07T10:05:48.471Z,82.21
2023-03-07T10:06:48.384Z,82.12
2023-03-07T10:07:48.303Z,81.55
2023-03-07T10:08:48.217Z,81.84
2023-03-07T10:09:48.138Z,80.98
2023-03-07T10:10:48.049Z,80.16
2023-03-07T10:11:48.001Z,79.79
2023-03-07T10:12:47.880Z,80.64
2023-03-07T10:13:47.798Z,80.55
2023-03-07T10:14:47.714Z,79.69
2023-03-07T10:15:47.678Z,78.55
2023-03-07T10:16:47.592Z,75.74
2023-03-07T10:17:47.471Z,76.12
2023-03-07T10:18:47.382Z,75.64
2023-03-07T10:19:47.298Z,75.55
2023-03-07T10:20:47.213Z,75.55
2023-03-07T10:21:47.135Z,75.26
2023-03-07T10:22:47.059Z,75.64
2023-03-07T10:23:46.967Z,75.64
2023-03-07T10:24:46.882Z,75.64
2023-03-07T10:25:46.802Z,75.68
2023-03-07T10:26:46.714Z,74.82
2023-03-07T10:27:46.638Z,75.78
2023-03-07T10:28:46.556Z,73.49
2023-03-07T10:29:46.463Z,73.49
2023-03-07T10:30:46.383Z,73.59
2023-03-07T10:31:46.338Z,73.59
2023-03-07T10:32:46.279Z,73.59
2023-03-07T10:33:46.205Z,73.02
2023-03-07T10:34:46.069Z,72.92
2023-03-07T10:35:45.973Z,72.55
2023-03-07T10:36:45.886Z,72.74
2023-03-07T10:37:45.801Z,72.70
2023-03-07T10:38:45.717Z,73.18
2023-03-07T10:39:45.631Z,71.84
2023-03-07T10:40:45.552Z,71.46
2023-03-07T10:41:45.468Z,71.75
2023-03-07T10:42:45.390Z,72.41
2023-03-07T10:43:45.306Z,73.55
2023-03-07T10:44:45.241Z,74.22
2023-03-07T10:45:45.153Z,72.70
2023-03-07T10:46:55.339Z,72.79
2023-03-07T10:47:44.971Z,71.94
2023-03-07T10:48:44.887Z,71.56
2023-03-07T10:49:44.811Z,72.32
2023-03-07T10:50:44.724Z,72.41
2023-03-07T10:51:44.642Z,72.51
2023-03-07T10:52:44.577Z,72.60
2023-03-07T10:53:44.473Z,72.51
2023-03-07T10:54:44.396Z,72.22
2023-03-07T10:55:44.311Z,71.84
2023-03-07T10:56:44.228Z,72.32
2023-03-07T10:57:44.140Z,72.60
2023-03-07T10:58:44.070Z,71.84
2023-03-07T10:59:43.997Z,71.37
2023-03-07T11:00:43.895Z,73.27
2023-03-07T11:01:43.852Z,72.70
2023-03-07T11:02:43.730Z,72.99
2023-03-07T11:03:52.864Z,72.41
2023-03-07T11:04:43.629Z,73.04
2023-03-07T11:05:43.482Z,72.66
2023-03-07T11:06:43.397Z,72.38
2023-03-07T11:07:43.314Z,72.56
2023-03-07T11:08:43.231Z,72.66
2023-03-07T11:09:43.147Z,72.95
2023-03-07T11:10:43.065Z,73.52
2023-03-07T11:11:42.981Z,73.71
2023-03-07T11:12:42.906Z,73.52
2023-03-07T11:13:42.815Z,73.33
2023-03-07T11:14:42.735Z,73.52
2023-03-07T11:15:42.740Z,72.47
2023-03-07T11:16:42.752Z,72.47
2023-03-07T11:17:42.496Z,72.47
2023-03-07T11:18:42.412Z,72.56
2023-03-07T11:19:42.319Z,72.66
2023-03-07T11:20:42.239Z,72.56
2023-03-07T11:21:42.154Z,72.38
2023-03-07T11:22:42.070Z,73.04
2023-03-07T11:23:42.028Z,72.95
2023-03-07T11:24:41.906Z,73.61
2023-03-07T11:25:41.823Z,73.52
2023-03-07T11:26:41.739Z,73.61
2023-03-07T11:27:41.658Z,73.23
2023-03-07T11:28:41.575Z,74.37
2023-03-07T11:29:41.486Z,73.71
2023-03-07T11:30:41.417Z,73.42
2023-03-07T11:31:41.332Z,73.33
2023-03-07T11:32:41.299Z,73.23
2023-03-07T11:33:53.019Z,73.14
2023-03-07T11:34:41.075Z,72.75
2023-03-07T11:35:40.996Z,72.75
2023-03-07T11:36:40.969Z,73.52
2023-03-07T11:37:40.826Z,73.80
2023-03-07T11:38:40.744Z,73.71
2023-03-07T11:39:40.657Z,73.33
2023-03-07T11:40:40.590Z,73.14
2023-03-07T11:41:40.498Z,73.61
2023-03-07T11:42:40.410Z,73.90
2023-03-07T11:43:40.325Z,73.42
2023-03-07T11:44:40.251Z,73.14
2023-03-07T11:45:40.160Z,72.47
2023-03-07T11:46:40.143Z,72.66
2023-03-07T11:47:40.008Z,72.75
2023-03-07T11:48:39.912Z,72.00
2023-03-07T11:49:39.831Z,72.09
2023-03-07T11:50:39.746Z,72.47
2023-03-07T11:51:39.663Z,72.38
2023-03-07T11:52:39.600Z,72.47
2023-03-07T11:53:39.528Z,72.09
2023-03-07T11:54:39.429Z,72.09
2023-03-07T11:55:39.343Z,71.62
2023-03-07T11:56:39.253Z,72.09
2023-03-07T11:57:39.171Z,71.81
2023-03-07T11:58:39.084Z,71.52
2023-03-07T11:59:39.001Z,71.71
2023-03-07T12:00:38.925Z,71.04
2023-03-07T12:01:38.835Z,71.23
2023-03-07T12:02:38.799Z,71.52
2023-03-07T12:03:38.679Z,71.52
2023-03-07T12:04:38.588Z,70.95
2023-03-07T12:05:38.589Z,71.23
2023-03-07T12:06:38.421Z,71.14
2023-03-07T12:07:38.338Z,70.86
2023-03-07T12:08:38.254Z,71.14
2023-03-07T12:09:38.178Z,71.52
2023-03-07T12:10:38.091Z,71.43
2023-03-07T12:11:38.008Z,71.52
2023-03-07T12:12:37.934Z,71.04
2023-03-07T12:13:37.838Z,70.86
2023-03-07T12:14:37.758Z,70.48
2023-03-07T12:15:37.678Z,71.23
2023-03-07T12:16:37.691Z,72.56
2023-03-07T12:17:37.514Z,72.75
2023-03-07T12:18:37.446Z,71.23
2023-03-07T12:19:37.342Z,70.38
2023-03-07T12:20:37.258Z,70.19
2023-03-07T12:21:37.177Z,70.10
2023-03-07T12:22:37.096Z,70.25
2023-03-07T12:23:37.018Z,70.57
2023-03-07T12:24:36.925Z,71.11
2023-03-07T12:25:36.845Z,71.20
2023-03-07T12:26:36.780Z,71.11
2023-03-07T12:27:36.677Z,71.11
2023-03-07T12:28:36.594Z,71.39
2023-03-07T12:29:36.514Z,71.48
2023-03-07T12:30:36.435Z,71.39
2023-03-07T12:31:36.446Z,72.06
2023-03-07T12:32:36.624Z,72.81
2023-03-07T12:33:36.195Z,72.63
2023-03-07T12:34:36.104Z,72.25
2023-03-07T12:35:36.024Z,72.72
2023-03-07T12:36:35.945Z,72.81
2023-03-07T12:37:35.846Z,72.25
2023-03-07T12:38:36.673Z,71.77
2023-03-07T12:39:35.680Z,71.86
2023-03-07T12:40:35.601Z,71.86
2023-03-07T12:41:35.701Z,71.01
2023-03-07T12:42:35.447Z,71.58
2023-03-07T12:43:35.350Z,71.20
2023-03-07T12:44:35.271Z,71.96
2023-03-07T12:45:35.251Z,72.91
2023-03-07T12:46:35.164Z,72.44
2023-03-07T12:47:35.012Z,73.38
2023-03-07T12:48:34.933Z,72.63
2023-03-07T12:49:40.905Z,72.06
2023-03-07T12:50:34.764Z,72.44
2023-03-07T12:51:34.679Z,72.72